ASA66 PAYA-PAJN
Flight info
| Callsign | ASA66 |
|---|---|
| Flight time | 0h 35m |
| Altitude | 25000 |
| Route | YAK HAPIT SSR |
| Aircraft | B737/M-SDE2E3FGHIRWXY/LB1 |
Departure
| Time | 2026-04-22 15:05 |
|---|---|
| Airport | Yakutat Airport (PAYA) |
Arrival
| Time | 2026-04-22 15:41 |
|---|---|
| Airport | Juneau International Airport (PAJN) |
| Time | Latitude | Longitude | Altitude | Speed | Heading |
|---|---|---|---|---|---|
| 2026-04-22 14:20 | 59.50798 | -139.66730 | 46 ft | 0 kts | 332° |
| 2026-04-22 15:00 | 59.50811 | -139.66741 | 46 ft | 5 kts | 342° |
| 2026-04-22 15:00 | 59.50833 | -139.66700 | 46 ft | 5 kts | 94° |
| 2026-04-22 15:01 | 59.50804 | -139.66669 | 48 ft | 5 kts | 184° |
| 2026-04-22 15:01 | 59.50767 | -139.66676 | 48 ft | 6 kts | 186° |
| 2026-04-22 15:01 | 59.50728 | -139.66649 | 45 ft | 6 kts | 136° |
| 2026-04-22 15:01 | 59.50697 | -139.66582 | 45 ft | 8 kts | 133° |
| 2026-04-22 15:02 | 59.50654 | -139.66516 | 47 ft | 8 kts | 169° |
| 2026-04-22 15:02 | 59.50607 | -139.66563 | 46 ft | 8 kts | 224° |
| 2026-04-22 15:02 | 59.50560 | -139.66653 | 45 ft | 15 kts | 224° |
| 2026-04-22 15:02 | 59.50462 | -139.66837 | 45 ft | 22 kts | 224° |
| 2026-04-22 15:03 | 59.50354 | -139.67048 | 44 ft | 22 kts | 226° |
| 2026-04-22 15:03 | 59.50250 | -139.67258 | 48 ft | 21 kts | 226° |
| 2026-04-22 15:03 | 59.50148 | -139.67465 | 46 ft | 21 kts | 225° |
| 2026-04-22 15:03 | 59.50047 | -139.67666 | 45 ft | 20 kts | 224° |
| 2026-04-22 15:04 | 59.49970 | -139.67757 | 45 ft | 10 kts | 168° |
| 2026-04-22 15:04 | 59.49925 | -139.67774 | 47 ft | 7 kts | 232° |
| 2026-04-22 15:04 | 59.49934 | -139.67850 | 45 ft | 7 kts | 336° |
| 2026-04-22 15:04 | 59.49966 | -139.67823 | 44 ft | 0 kts | 44° |
| 2026-04-22 15:05 | 59.49974 | -139.67808 | 43 ft | 14 kts | 44° |
| 2026-04-22 15:05 | 59.50271 | -139.67228 | 46 ft | 105 kts | 44° |
| 2026-04-22 15:05 | 59.50951 | -139.65886 | 275 ft | 155 kts | 45° |
| 2026-04-22 15:05 | 59.51692 | -139.64414 | 1376 ft | 150 kts | 46° |
| 2026-04-22 15:06 | 59.52430 | -139.62917 | 2291 ft | 159 kts | 53° |
| 2026-04-22 15:06 | 59.52859 | -139.60673 | 2745 ft | 199 kts | 86° |
| 2026-04-22 15:06 | 59.52539 | -139.57913 | 3403 ft | 216 kts | 123° |
| 2026-04-22 15:06 | 59.51441 | -139.55958 | 4209 ft | 221 kts | 156° |
| 2026-04-22 15:07 | 59.50013 | -139.54763 | 5177 ft | 228 kts | 160° |
| 2026-04-22 15:07 | 59.48489 | -139.53398 | 5765 ft | 256 kts | 157° |
| 2026-04-22 15:07 | 59.46783 | -139.51841 | 6348 ft | 280 kts | 159° |
| 2026-04-22 15:07 | 59.45009 | -139.50227 | 7429 ft | 284 kts | 158° |
| 2026-04-22 15:08 | 59.43204 | -139.48369 | 8165 ft | 303 kts | 154° |
| 2026-04-22 15:08 | 59.41391 | -139.46184 | 9212 ft | 307 kts | 151° |
| 2026-04-22 15:08 | 59.39594 | -139.43799 | 10157 ft | 317 kts | 148° |
| 2026-04-22 15:08 | 59.37789 | -139.41179 | 10641 ft | 341 kts | 146° |
| 2026-04-22 15:09 | 59.35855 | -139.38207 | 11145 ft | 361 kts | 144° |
| 2026-04-22 15:09 | 59.33888 | -139.35062 | 12033 ft | 368 kts | 143° |
| 2026-04-22 15:09 | 59.31911 | -139.31830 | 13023 ft | 372 kts | 143° |
| 2026-04-22 15:09 | 59.29917 | -139.28529 | 13958 ft | 379 kts | 142° |
| 2026-04-22 15:10 | 59.27898 | -139.25168 | 14798 ft | 384 kts | 142° |
| 2026-04-22 15:10 | 59.25851 | -139.21754 | 15669 ft | 389 kts | 142° |
| 2026-04-22 15:10 | 59.23809 | -139.18348 | 16502 ft | 394 kts | 142° |
| 2026-04-22 15:10 | 59.21711 | -139.14854 | 17354 ft | 399 kts | 142° |
| 2026-04-22 15:11 | 59.19586 | -139.11320 | 18196 ft | 404 kts | 142° |
| 2026-04-22 15:11 | 59.17427 | -139.07736 | 18973 ft | 410 kts | 142° |
| 2026-04-22 15:11 | 59.15242 | -139.04115 | 19684 ft | 415 kts | 142° |
| 2026-04-22 15:11 | 59.13024 | -139.00448 | 20406 ft | 421 kts | 142° |
| 2026-04-22 15:12 | 59.10780 | -138.96743 | 21112 ft | 426 kts | 142° |
| 2026-04-22 15:12 | 59.08505 | -138.92994 | 21821 ft | 431 kts | 142° |
| 2026-04-22 15:12 | 59.06199 | -138.89199 | 22477 ft | 438 kts | 142° |
| 2026-04-22 15:12 | 59.03858 | -138.85356 | 23156 ft | 443 kts | 142° |
| 2026-04-22 15:13 | 59.01522 | -138.81527 | 23842 ft | 448 kts | 142° |
| 2026-04-22 15:13 | 58.99125 | -138.77607 | 24417 ft | 453 kts | 142° |
| 2026-04-22 15:13 | 58.96709 | -138.73661 | 25001 ft | 456 kts | 142° |
| 2026-04-22 15:13 | 58.94272 | -138.69690 | 25301 ft | 459 kts | 142° |
| 2026-04-22 15:14 | 58.91831 | -138.65717 | 25278 ft | 456 kts | 142° |
| 2026-04-22 15:14 | 58.89410 | -138.61786 | 25291 ft | 454 kts | 142° |
| 2026-04-22 15:14 | 58.86985 | -138.57855 | 25304 ft | 455 kts | 142° |
| 2026-04-22 15:14 | 58.84555 | -138.53927 | 25311 ft | 456 kts | 142° |
| 2026-04-22 15:15 | 58.82149 | -138.50044 | 25303 ft | 458 kts | 142° |
| 2026-04-22 15:15 | 58.79705 | -138.46108 | 25256 ft | 458 kts | 142° |
| 2026-04-22 15:15 | 58.77260 | -138.42177 | 25290 ft | 457 kts | 142° |
| 2026-04-22 15:15 | 58.74956 | -138.38479 | 25286 ft | 457 kts | 142° |
| 2026-04-22 15:16 | 58.72742 | -138.34931 | 25293 ft | 457 kts | 142° |
| 2026-04-22 15:16 | 58.70297 | -138.31020 | 25293 ft | 456 kts | 142° |
| 2026-04-22 15:16 | 58.67860 | -138.27130 | 25295 ft | 456 kts | 142° |
| 2026-04-22 15:16 | 58.65422 | -138.23245 | 25295 ft | 455 kts | 142° |
| 2026-04-22 15:17 | 58.63016 | -138.19418 | 25290 ft | 455 kts | 142° |
| 2026-04-22 15:17 | 58.60580 | -138.15552 | 25290 ft | 455 kts | 142° |
| 2026-04-22 15:17 | 58.58144 | -138.11692 | 25290 ft | 454 kts | 142° |
| 2026-04-22 15:17 | 58.55704 | -138.07834 | 25291 ft | 454 kts | 142° |
| 2026-04-22 15:18 | 58.53269 | -138.03991 | 25295 ft | 454 kts | 142° |
| 2026-04-22 15:18 | 58.50828 | -138.00144 | 25293 ft | 454 kts | 142° |
| 2026-04-22 15:18 | 58.48389 | -137.96308 | 25294 ft | 454 kts | 142° |
| 2026-04-22 15:18 | 58.45945 | -137.92473 | 25293 ft | 454 kts | 142° |
| 2026-04-22 15:19 | 58.43506 | -137.88650 | 25288 ft | 454 kts | 142° |
| 2026-04-22 15:19 | 58.41093 | -137.84876 | 25288 ft | 454 kts | 143° |
| 2026-04-22 15:19 | 58.38646 | -137.81056 | 25295 ft | 455 kts | 142° |
| 2026-04-22 15:19 | 58.36199 | -137.77243 | 25291 ft | 455 kts | 143° |
| 2026-04-22 15:20 | 58.33747 | -137.73429 | 25290 ft | 455 kts | 143° |
| 2026-04-22 15:20 | 58.31294 | -137.69619 | 25291 ft | 455 kts | 143° |
| 2026-04-22 15:20 | 58.28838 | -137.65810 | 25297 ft | 455 kts | 143° |
| 2026-04-22 15:20 | 58.26382 | -137.62010 | 25300 ft | 456 kts | 143° |
| 2026-04-22 15:21 | 58.23954 | -137.58260 | 25295 ft | 456 kts | 142° |
| 2026-04-22 15:21 | 58.21766 | -137.53920 | 25278 ft | 457 kts | 123° |
| 2026-04-22 15:21 | 58.20360 | -137.48560 | 25302 ft | 453 kts | 105° |
| 2026-04-22 15:21 | 58.19761 | -137.42759 | 25296 ft | 445 kts | 88° |
| 2026-04-22 15:22 | 58.19702 | -137.36911 | 25302 ft | 444 kts | 85° |
| 2026-04-22 15:22 | 58.19718 | -137.31060 | 25292 ft | 444 kts | 84° |
| 2026-04-22 15:22 | 58.19751 | -137.25213 | 25288 ft | 444 kts | 84° |
| 2026-04-22 15:22 | 58.19777 | -137.19358 | 25289 ft | 444 kts | 84° |
| 2026-04-22 15:23 | 58.19786 | -137.13507 | 25245 ft | 441 kts | 84° |
| 2026-04-22 15:23 | 58.19780 | -137.07792 | 24837 ft | 439 kts | 85° |
| 2026-04-22 15:23 | 58.19762 | -137.02023 | 24352 ft | 436 kts | 85° |
| 2026-04-22 15:23 | 58.19737 | -136.96306 | 23884 ft | 432 kts | 85° |
| 2026-04-22 15:24 | 58.19707 | -136.90636 | 23277 ft | 428 kts | 85° |
| 2026-04-22 15:24 | 58.19674 | -136.85021 | 22713 ft | 424 kts | 85° |
| 2026-04-22 15:24 | 58.19639 | -136.79471 | 22199 ft | 419 kts | 85° |
| 2026-04-22 15:24 | 58.19602 | -136.73970 | 21680 ft | 415 kts | 85° |
| 2026-04-22 15:25 | 58.19564 | -136.68523 | 21164 ft | 411 kts | 85° |
| 2026-04-22 15:25 | 58.19525 | -136.63133 | 20655 ft | 407 kts | 85° |
| 2026-04-22 15:25 | 58.19484 | -136.57788 | 20162 ft | 404 kts | 86° |
| 2026-04-22 15:25 | 58.19442 | -136.52552 | 19674 ft | 401 kts | 85° |
| 2026-04-22 15:26 | 58.19398 | -136.47297 | 19178 ft | 397 kts | 85° |
| 2026-04-22 15:26 | 58.19351 | -136.42073 | 18685 ft | 395 kts | 85° |
| 2026-04-22 15:26 | 58.19303 | -136.36897 | 18136 ft | 392 kts | 86° |
| 2026-04-22 15:26 | 58.19253 | -136.31747 | 17604 ft | 389 kts | 86° |
| 2026-04-22 15:27 | 58.19201 | -136.26646 | 17103 ft | 385 kts | 86° |
| 2026-04-22 15:27 | 58.19147 | -136.21593 | 16433 ft | 386 kts | 86° |
| 2026-04-22 15:27 | 58.19093 | -136.16604 | 15873 ft | 380 kts | 86° |
| 2026-04-22 15:27 | 58.19037 | -136.11606 | 15355 ft | 379 kts | 86° |
| 2026-04-22 15:28 | 58.18979 | -136.06620 | 14837 ft | 378 kts | 86° |
| 2026-04-22 15:28 | 58.18920 | -136.01654 | 14369 ft | 376 kts | 85° |
| 2026-04-22 15:28 | 58.18858 | -135.96712 | 13840 ft | 374 kts | 86° |
| 2026-04-22 15:28 | 58.18794 | -135.91802 | 13294 ft | 371 kts | 86° |
| 2026-04-22 15:29 | 58.18730 | -135.86932 | 12782 ft | 368 kts | 86° |
| 2026-04-22 15:29 | 58.18663 | -135.82111 | 12300 ft | 362 kts | 87° |
| 2026-04-22 15:29 | 58.18595 | -135.77426 | 11840 ft | 350 kts | 86° |
| 2026-04-22 15:30 | 58.18479 | -135.68303 | 10904 ft | 348 kts | 87° |
| 2026-04-22 15:30 | 58.18406 | -135.63731 | 10417 ft | 346 kts | 88° |
| 2026-04-22 15:30 | 58.18331 | -135.59243 | 10244 ft | 334 kts | 88° |
| 2026-04-22 15:30 | 58.18256 | -135.54917 | 10072 ft | 323 kts | 87° |
| 2026-04-22 15:31 | 58.18187 | -135.50747 | 9949 ft | 310 kts | 87° |
| 2026-04-22 15:31 | 58.18122 | -135.46695 | 9541 ft | 309 kts | 88° |
| 2026-04-22 15:31 | 58.18057 | -135.42646 | 9201 ft | 306 kts | 88° |
| 2026-04-22 15:31 | 58.17993 | -135.38697 | 8837 ft | 303 kts | 88° |
| 2026-04-22 15:32 | 58.17924 | -135.34684 | 8128 ft | 305 kts | 89° |
| 2026-04-22 15:32 | 58.17853 | -135.30731 | 7717 ft | 295 kts | 89° |
| 2026-04-22 15:32 | 58.17808 | -135.26915 | 7356 ft | 284 kts | 84° |
| 2026-04-22 15:32 | 58.18313 | -135.23384 | 7054 ft | 275 kts | 62° |
| 2026-04-22 15:33 | 58.19108 | -135.20113 | 6735 ft | 273 kts | 62° |
| 2026-04-22 15:33 | 58.19898 | -135.16848 | 6400 ft | 271 kts | 65° |
| 2026-04-22 15:33 | 58.20674 | -135.13599 | 6050 ft | 269 kts | 65° |
| 2026-04-22 15:33 | 58.21438 | -135.10378 | 5732 ft | 267 kts | 65° |
| 2026-04-22 15:34 | 58.22266 | -135.07244 | 5378 ft | 265 kts | 52° |
| 2026-04-22 15:34 | 58.23636 | -135.05101 | 5078 ft | 258 kts | 23° |
| 2026-04-22 15:34 | 58.25318 | -135.04161 | 4907 ft | 248 kts | 9° |
| 2026-04-22 15:34 | 58.26993 | -135.03629 | 4755 ft | 240 kts | 7° |
| 2026-04-22 15:35 | 58.28610 | -135.03143 | 4632 ft | 231 kts | 7° |
| 2026-04-22 15:35 | 58.30162 | -135.02659 | 4537 ft | 222 kts | 7° |
| 2026-04-22 15:35 | 58.31649 | -135.02183 | 4452 ft | 212 kts | 8° |
| 2026-04-22 15:35 | 58.33081 | -135.01718 | 4289 ft | 206 kts | 8° |
| 2026-04-22 15:36 | 58.34471 | -135.01148 | 4087 ft | 206 kts | 22° |
| 2026-04-22 15:36 | 58.35478 | -134.99329 | 3861 ft | 200 kts | 66° |
| 2026-04-22 15:36 | 58.35712 | -134.96837 | 3690 ft | 190 kts | 88° |
| 2026-04-22 15:36 | 58.35727 | -134.94336 | 3462 ft | 188 kts | 90° |
| 2026-04-22 15:37 | 58.35728 | -134.91860 | 3240 ft | 186 kts | 90° |
| 2026-04-22 15:37 | 58.35730 | -134.89396 | 3024 ft | 186 kts | 90° |
| 2026-04-22 15:37 | 58.35735 | -134.86941 | 2819 ft | 185 kts | 90° |
| 2026-04-22 15:37 | 58.35739 | -134.84507 | 2651 ft | 184 kts | 90° |
| 2026-04-22 15:38 | 58.35744 | -134.82059 | 2392 ft | 184 kts | 90° |
| 2026-04-22 15:38 | 58.35758 | -134.77246 | 1902 ft | 180 kts | 90° |
| 2026-04-22 15:38 | 58.35763 | -134.74894 | 1662 ft | 180 kts | 90° |
| 2026-04-22 15:39 | 58.35792 | -134.72536 | 1409 ft | 174 kts | 90° |
| 2026-04-22 15:39 | 58.35792 | -134.70344 | 1196 ft | 155 kts | 91° |
| 2026-04-22 15:39 | 58.35784 | -134.68408 | 982 ft | 139 kts | 91° |
| 2026-04-22 15:39 | 58.35776 | -134.66627 | 821 ft | 132 kts | 91° |
| 2026-04-22 15:40 | 58.35831 | -134.64906 | 689 ft | 131 kts | 85° |
| 2026-04-22 15:40 | 58.35909 | -134.63148 | 529 ft | 132 kts | 87° |
| 2026-04-22 15:40 | 58.35946 | -134.61376 | 346 ft | 135 kts | 93° |
| 2026-04-22 15:40 | 58.35778 | -134.59678 | 53 ft | 128 kts | 104° |
| 2026-04-22 15:41 | 58.35572 | -134.58190 | 30 ft | 98 kts | 104° |
| 2026-04-22 15:41 | 58.35452 | -134.57319 | 34 ft | 45 kts | 104° |
| 2026-04-22 15:41 | 58.35391 | -134.56885 | 33 ft | 27 kts | 104° |
| 2026-04-22 15:41 | 58.35387 | -134.56698 | 33 ft | 10 kts | 46° |
| 2026-04-22 15:42 | 58.35434 | -134.56673 | 33 ft | 5 kts | 11° |
| 2026-04-22 15:42 | 58.35468 | -134.56683 | 33 ft | 5 kts | 322° |
| 2026-04-22 15:42 | 58.35483 | -134.56743 | 32 ft | 5 kts | 283° |
| 2026-04-22 15:42 | 58.35491 | -134.56807 | 33 ft | 5 kts | 283° |
| 2026-04-22 15:43 | 58.35498 | -134.56871 | 33 ft | 6 kts | 283° |
| 2026-04-22 15:43 | 58.35511 | -134.56969 | 33 ft | 9 kts | 283° |
| 2026-04-22 15:43 | 58.35525 | -134.57086 | 32 ft | 9 kts | 283° |
| 2026-04-22 15:43 | 58.35539 | -134.57200 | 32 ft | 9 kts | 283° |
| 2026-04-22 15:44 | 58.35553 | -134.57310 | 32 ft | 8 kts | 283° |
| 2026-04-22 15:44 | 58.35573 | -134.57414 | 33 ft | 8 kts | 290° |
| 2026-04-22 15:44 | 58.35592 | -134.57514 | 33 ft | 8 kts | 290° |
| 2026-04-22 15:44 | 58.35608 | -134.57613 | 33 ft | 8 kts | 283° |
| 2026-04-22 15:45 | 58.35620 | -134.57716 | 33 ft | 10 kts | 283° |
| 2026-04-22 15:45 | 58.35641 | -134.57880 | 32 ft | 13 kts | 284° |
| 2026-04-22 15:45 | 58.35664 | -134.58047 | 33 ft | 13 kts | 284° |
| 2026-04-22 15:45 | 58.35686 | -134.58206 | 33 ft | 12 kts | 285° |
| 2026-04-22 15:46 | 58.35709 | -134.58295 | 33 ft | 6 kts | 327° |
| 2026-04-22 15:46 | 58.35751 | -134.58301 | 33 ft | 5 kts | 357° |
| 2026-04-22 15:46 | 58.35770 | -134.58347 | 31 ft | 5 kts | 288° |
| 2026-04-22 15:46 | 58.35784 | -134.58396 | 33 ft | 4 kts | 328° |
| 2026-04-22 15:47 | 58.35810 | -134.58387 | 33 ft | 4 kts | 23° |
| 2026-04-22 15:47 | 58.35830 | -134.58372 | 33 ft | 2 kts | 23° |
| 2026-04-22 15:47 | 58.35835 | -134.58368 | 33 ft | 0 kts | 22° |